Time;durP1;ratioP1;P1;durP2;ratioP2;P2;SDS_P1;SDS_P2;PMS_P1;PMS_P2;Temp;Humidity;BMP_temperature;BMP_pressure;BME280_temperature;BME280_humidity;BME280_pressure;Samples;Min_cycle;Max_cycle;Signal;HPM_P1;HPM_P2
2021/10/29 00:00:34;;;;;;;18.46;17.04;;;;;;;11.11;68.14;101603.15;464817;113;922340;-74
2021/10/29 00:01:37;;;;;;;20.66;17.44;;;;;;;11.09;68.15;101606.06;464079;112;930521;-74
2021/10/29 00:02:41;;;;;;;18.94;17.24;;;;;;;11.09;68.18;101606.06;464925;113;922621;-75
2021/10/29 00:03:45;;;;;;;17.45;16.11;;;;;;;11.08;68.17;101598.91;464922;114;923230;-74
2021/10/29 00:04:48;;;;;;;20.00;18.04;;;;;;;11.08;68.18;101598.09;464598;113;922539;-74
2021/10/29 00:05:51;;;;;;;20.02;18.21;;;;;;;11.08;68.19;101607.09;464683;112;922966;-74
2021/10/29 00:06:55;;;;;;;19.78;17.90;;;;;;;11.08;68.22;101598.09;464740;112;930641;-74
2021/10/29 00:07:59;;;;;;;21.79;19.84;;;;;;;11.06;68.21;101598.27;464302;113;923043;-75
2021/10/29 00:09:04;;;;;;;20.81;18.79;;;;;;;11.06;68.27;101594.70;465212;112;930524;-74
2021/10/29 00:10:08;;;;;;;20.59;18.55;;;;;;;11.05;68.39;101598.46;465569;113;922659;-73
2021/10/29 00:11:11;;;;;;;21.06;18.93;;;;;;;11.02;68.41;101596.13;465037;113;930535;-74
2021/10/29 00:12:15;;;;;;;19.64;18.00;;;;;;;10.99;68.42;101597.34;465636;113;930560;-75
2021/10/29 00:13:18;;;;;;;20.78;18.77;;;;;;;10.98;68.73;101589.34;465663;113;930602;-74
2021/10/29 00:14:22;;;;;;;21.86;19.41;;;;;;;10.96;68.61;101595.02;465249;111;930638;-75
2021/10/29 00:15:26;;;;;;;20.64;18.62;;;;;;;10.95;68.62;101595.20;465519;112;922663;-75
2021/10/29 00:16:31;;;;;;;18.22;16.61;;;;;;;10.94;68.66;101605.27;465633;111;922579;-75
2021/10/29 00:17:34;;;;;;;20.62;18.14;;;;;;;10.94;68.71;101602.54;466041;111;930326;-74
2021/10/29 00:18:38;;;;;;;20.28;18.42;;;;;;;10.94;68.76;101607.15;465246;112;930639;-74
2021/10/29 00:19:41;;;;;;;19.54;17.66;;;;;;;10.93;68.75;101600.84;465144;113;930321;-74
2021/10/29 00:20:45;;;;;;;19.85;16.56;;;;;;;10.93;68.74;101602.72;465059;113;930457;-74
2021/10/29 00:21:48;;;;;;;18.93;17.28;;;;;;;10.93;68.91;101606.30;465160;113;922477;-74
2021/10/29 00:22:52;;;;;;;20.51;18.72;;;;;;;10.93;69.01;101605.45;464730;111;930815;-75
2021/10/29 00:23:56;;;;;;;20.68;18.88;;;;;;;10.93;68.90;101613.64;465640;111;922563;-74
2021/10/29 00:25:00;;;;;;;21.30;19.38;;;;;;;10.92;68.92;101620.13;465352;111;930435;-74
2021/10/29 00:26:03;;;;;;;19.69;17.71;;;;;;;10.93;68.91;101616.36;465832;113;923019;-74
2021/10/29 00:27:07;;;;;;;19.29;17.61;;;;;;;10.91;69.00;101613.85;465534;113;930560;-74
2021/10/29 00:28:10;;;;;;;19.18;17.48;;;;;;;10.92;68.97;101620.13;465531;111;923071;-75
2021/10/29 00:29:14;;;;;;;19.98;18.09;;;;;;;10.92;69.00;101615.52;465791;112;922582;-75
2021/10/29 00:30:19;;;;;;;20.24;18.40;;;;;;;10.93;68.95;101610.91;465185;113;931487;-74
2021/10/29 00:31:22;;;;;;;19.62;17.57;;;;;;;10.94;68.96;101609.87;465689;113;923309;-74
2021/10/29 00:32:27;;;;;;;21.06;18.90;;;;;;;10.95;68.93;101615.15;465329;111;930668;-75
2021/10/29 00:33:31;;;;;;;21.93;18.91;;;;;;;10.96;68.92;101614.12;465646;113;927288;-75
2021/10/29 00:34:34;;;;;;;22.74;20.23;;;;;;;10.97;68.90;101615.78;457034;115;923021;-75
2021/10/29 00:35:37;;;;;;;21.16;19.38;;;;;;;10.99;68.91;101619.17;457059;113;930713;-75
2021/10/29 00:36:41;;;;;;;21.43;19.32;;;;;;;10.99;68.90;101619.17;465160;111;923042;-75
2021/10/29 00:37:44;;;;;;;22.13;20.11;;;;;;;11.01;68.94;101621.72;465618;111;922648;-74
2021/10/29 00:38:48;;;;;;;20.48;18.62;;;;;;;11.00;68.88;101623.61;465430;113;923001;-75
2021/10/29 00:39:52;;;;;;;20.28;18.45;;;;;;;11.00;68.89;101628.21;455719;114;930632;-74
2021/10/29 00:40:55;;;;;;;22.46;18.11;;;;;;;11.01;68.89;101625.30;455704;113;923063;-74
2021/10/29 00:42:01;;;;;;;20.32;18.49;;;;;;;11.03;68.91;101627.81;465381;112;923036;-74
2021/10/29 00:43:04;;;;;;;21.49;19.41;;;;;;;11.05;68.83;101629.33;464971;113;922510;-75
2021/10/29 00:44:08;;;;;;;26.26;20.21;;;;;;;11.07;68.75;101621.80;465770;111;922673;-74
2021/10/29 00:45:12;;;;;;;19.10;17.46;;;;;;;11.09;68.78;101622.44;465254;112;930971;-75
2021/10/29 00:46:16;;;;;;;25.42;19.05;;;;;;;11.11;68.74;101624.98;465295;113;930457;-74
2021/10/29 00:47:21;;;;;;;21.56;19.12;;;;;;;11.13;68.70;101631.95;465083;113;922969;-74
2021/10/29 00:48:24;;;;;;;19.86;18.19;;;;;;;11.14;68.69;101630.89;465388;112;930667;-74
2021/10/29 00:49:28;;;;;;;19.48;17.61;;;;;;;11.15;68.63;101624.40;464805;113;922934;-74
2021/10/29 00:50:33;;;;;;;20.70;18.17;;;;;;;11.16;68.61;101625.25;465062;113;923229;-73
2021/10/29 00:51:36;;;;;;;19.67;17.73;;;;;;;11.16;68.67;101626.09;464611;111;922764;-75
2021/10/29 00:52:41;;;;;;;21.02;18.57;;;;;;;11.17;68.64;101629.67;464984;111;930563;-73
2021/10/29 00:53:45;;;;;;;20.15;18.45;;;;;;;11.17;68.60;101629.67;465660;111;923047;-75
2021/10/29 00:54:49;;;;;;;20.78;18.67;;;;;;;11.18;68.60;101632.22;465648;113;923163;-74
2021/10/29 00:55:52;;;;;;;20.05;18.29;;;;;;;11.17;68.58;101625.06;465889;113;922853;-74
2021/10/29 00:56:56;;;;;;;19.14;17.50;;;;;;;11.19;68.67;101630.34;465368;113;922736;-73
2021/10/29 00:57:59;;;;;;;20.01;18.26;;;;;;;11.20;68.63;101629.27;464942;111;930475;-74
2021/10/29 00:59:03;;;;;;;19.11;17.10;;;;;;;11.21;68.68;101633.70;465450;112;922439;-72
2021/10/29 01:00:08;;;;;;;20.07;17.59;;;;;;;11.22;68.66;101629.94;466800;112;930415;-74
2021/10/29 01:01:12;;;;;;;19.22;17.41;;;;;;;11.22;68.62;101629.94;466758;113;930611;-74
2021/10/29 01:02:16;;;;;;;18.63;16.85;;;;;;;11.22;68.69;101633.52;466286;111;922216;-76
2021/10/29 01:03:20;;;;;;;17.85;16.30;;;;;;;11.22;68.66;101630.78;465662;113;923156;-75
2021/10/29 01:04:25;;;;;;;18.19;16.68;;;;;;;11.24;68.73;101625.14;465765;113;922717;-75
2021/10/29 01:05:28;;;;;;;19.19;17.32;;;;;;;11.23;68.72;101629.75;465621;113;922727;-76
2021/10/29 01:06:34;;;;;;;18.23;16.73;;;;;;;11.23;68.69;101632.48;464880;111;922732;-76
2021/10/29 01:07:38;;;;;;;18.32;16.62;;;;;;;11.25;68.70;101633.11;464421;113;923070;-75
2021/10/29 01:08:41;;;;;;;18.52;16.86;;;;;;;11.25;68.72;101633.11;465298;113;923074;-72
2021/10/29 01:09:45;;;;;;;18.42;16.89;;;;;;;11.27;68.67;101644.70;465799;113;928982;-74
2021/10/29 01:10:50;;;;;;;21.34;19.35;;;;;;;11.28;68.59;101637.36;465629;111;922651;-73
2021/10/29 01:11:54;;;;;;;20.56;18.78;;;;;;;11.27;68.54;101636.51;464819;112;922506;-75
2021/10/29 01:12:58;;;;;;;21.09;18.87;;;;;;;11.28;68.47;101643.66;465649;112;930459;-73
2021/10/29 01:14:02;;;;;;;21.62;19.72;;;;;;;11.26;68.42;101640.27;465371;113;930925;-75
2021/10/29 01:15:07;;;;;;;20.78;18.69;;;;;;;11.26;68.40;101640.27;465228;113;922475;-74
2021/10/29 01:16:12;;;;;;;19.78;17.90;;;;;;;11.24;68.38;101646.98;464829;112;923053;-74
2021/10/29 01:17:16;;;;;;;21.36;19.09;;;;;;;11.23;68.34;101642.55;465884;113;923107;-72
2021/10/29 01:18:21;;;;;;;19.49;17.51;;;;;;;11.22;68.33;101647.16;465464;111;922617;-73
2021/10/29 01:19:28;;;;;;;23.99;19.50;;;;;;;11.21;68.31;101644.62;465438;111;930870;-75
2021/10/29 01:20:32;;;;;;;20.97;18.83;;;;;;;11.20;68.28;101651.95;465478;113;930577;-74
2021/10/29 01:21:36;;;;;;;22.35;20.12;;;;;;;11.20;68.26;101646.50;465623;113;923022;-74
2021/10/29 01:22:40;;;;;;;20.64;18.68;;;;;;;11.20;68.22;101640.19;465746;113;922624;-75
2021/10/29 01:23:44;;;;;;;19.99;17.91;;;;;;;11.19;68.20;101652.99;465708;112;930522;-75
2021/10/29 01:24:47;;;;;;;22.16;19.98;;;;;;;11.19;68.37;101654.91;464833;112;930612;-75
2021/10/29 01:26:03;;;;;;;20.26;18.48;;;;;;;11.19;68.28;101652.99;466078;113;922807;-74
2021/10/29 01:27:09;;;;;;;21.47;19.33;;;;;;;11.18;68.29;101650.48;465659;113;930511;-74
2021/10/29 01:28:20;;;;;;;21.91;19.69;;;;;;;11.28;68.29;101660.05;474107;107;933533;-73
2021/10/29 01:29:24;;;;;;;19.14;17.66;;;;;;;11.17;68.28;101651.52;462106;113;922824;-72
2021/10/29 01:30:27;;;;;;;20.83;18.90;;;;;;;11.17;68.30;101651.52;461480;114;922505;-73
2021/10/29 01:31:32;;;;;;;20.82;18.96;;;;;;;11.18;68.30;101648.59;463397;113;922671;-73
2021/10/29 01:32:36;;;;;;;20.81;19.05;;;;;;;11.19;68.26;101655.72;463287;113;922863;-75
2021/10/29 01:33:40;;;;;;;20.79;19.12;;;;;;;11.23;68.20;101650.74;463846;114;923182;-73
2021/10/29 01:34:43;;;;;;;20.99;19.06;;;;;;;11.24;68.14;101650.56;463674;114;922521;-73
2021/10/29 01:35:47;;;;;;;24.74;18.02;;;;;;;11.24;68.26;101647.83;462629;114;922640;-73
2021/10/29 01:36:51;;;;;;;20.82;18.98;;;;;;;11.24;68.26;101653.29;463107;113;922756;-74
2021/10/29 01:37:54;;;;;;;19.50;17.86;;;;;;;11.23;68.24;101657.05;463408;113;922594;-73
2021/10/29 01:38:57;;;;;;;20.64;18.50;;;;;;;11.23;68.26;101653.47;463719;114;923222;-74
2021/10/29 01:40:01;;;;;;;20.49;18.42;;;;;;;11.24;68.25;101658.75;462824;114;922744;-74
2021/10/29 01:41:06;;;;;;;20.06;17.71;;;;;;;11.24;68.27;101650.56;463701;113;922587;-74
2021/10/29 01:42:11;;;;;;;20.55;18.59;;;;;;;11.24;68.24;101653.29;462819;113;923060;-74
2021/10/29 01:43:14;;;;;;;20.02;18.38;;;;;;;11.24;68.28;101656.02;464074;113;922505;-72
2021/10/29 01:44:17;;;;;;;20.09;18.49;;;;;;;11.23;68.27;101659.78;463179;113;922859;-75
2021/10/29 01:45:21;;;;;;;20.65;19.04;;;;;;;11.23;68.25;101659.78;462811;113;922553;-73
2021/10/29 01:46:25;;;;;;;20.86;18.99;;;;;;;11.24;68.25;101657.90;462867;114;923351;-74
2021/10/29 01:47:29;;;;;;;21.98;19.65;;;;;;;11.24;68.32;101663.36;463114;114;922692;-73
2021/10/29 01:48:34;;;;;;;21.65;19.49;;;;;;;11.25;68.28;101662.30;462638;114;922847;-73
2021/10/29 01:49:39;;;;;;;20.83;19.08;;;;;;;11.24;68.22;101671.55;463491;113;923156;-73
2021/10/29 01:50:43;;;;;;;21.39;19.67;;;;;;;11.25;68.25;101660.41;462931;113;922995;-75
2021/10/29 01:51:46;;;;;;;20.82;18.96;;;;;;;11.24;68.21;101669.67;457675;115;922982;-73
2021/10/29 01:52:50;;;;;;;20.84;19.14;;;;;;;11.25;68.20;101665.02;458138;114;930522;-74
2021/10/29 01:53:53;;;;;;;21.42;19.48;;;;;;;11.25;68.23;101668.61;460566;113;922841;-75
2021/10/29 01:54:56;;;;;;;20.89;19.02;;;;;;;11.24;68.25;101666.94;461931;113;922638;-75
2021/10/29 01:56:00;;;;;;;20.39;18.68;;;;;;;11.26;68.24;101669.45;462966;113;923017;-74
2021/10/29 01:57:04;;;;;;;20.11;18.42;;;;;;;11.26;68.27;101675.77;464293;114;922544;-73
2021/10/29 01:58:08;;;;;;;19.71;18.18;;;;;;;11.25;68.20;101670.48;463720;113;930767;-72
2021/10/29 01:59:11;;;;;;;19.74;18.10;;;;;;;11.23;68.22;101678.89;463960;114;922427;-73
2021/10/29 02:00:16;;;;;;;20.31;18.71;;;;;;;11.22;68.22;101677.20;464002;113;923060;-74
2021/10/29 02:01:19;;;;;;;18.66;17.04;;;;;;;11.23;68.27;101681.63;463312;113;923116;-75
2021/10/29 02:02:23;;;;;;;19.48;17.84;;;;;;;11.22;68.34;101681.80;462855;113;922884;-75
2021/10/29 02:03:26;;;;;;;18.79;16.86;;;;;;;11.22;68.29;101681.80;463121;113;923116;-74
2021/10/29 02:04:30;;;;;;;17.36;15.66;;;;;;;11.19;68.29;101677.56;463307;114;930559;-72
2021/10/29 02:05:33;;;;;;;18.21;16.68;;;;;;;11.18;68.30;101685.97;463565;114;923475;-73
2021/10/29 02:06:37;;;;;;;17.61;16.08;;;;;;;11.19;68.35;101682.20;463323;113;923844;-74
2021/10/29 02:07:41;;;;;;;17.58;15.97;;;;;;;11.16;68.38;101683.42;463130;113;922528;-75
2021/10/29 02:08:46;;;;;;;18.38;16.47;;;;;;;11.15;68.36;101678.99;462959;113;922636;-75
2021/10/29 02:09:50;;;;;;;17.06;15.75;;;;;;;11.14;68.58;101696.41;462806;113;923034;-74
2021/10/29 02:10:55;;;;;;;18.54;16.55;;;;;;;11.14;68.47;101690.09;462796;113;922572;-75
2021/10/29 02:11:59;;;;;;;17.78;16.02;;;;;;;11.12;68.49;101697.64;463453;113;923262;-74
2021/10/29 02:13:03;;;;;;;15.86;14.64;;;;;;;11.11;68.53;101693.22;463317;114;922724;-74
2021/10/29 02:14:06;;;;;;;14.32;13.01;;;;;;;11.08;68.63;101701.80;461879;113;922478;-73
2021/10/29 02:15:10;;;;;;;14.93;13.72;;;;;;;11.05;68.68;101705.75;462395;113;923092;-73
2021/10/29 02:16:15;;;;;;;13.66;12.64;;;;;;;11.03;68.65;101709.69;462555;113;930520;-75
2021/10/29 02:17:22;;;;;;;13.21;11.99;;;;;;;10.99;68.72;101698.31;462192;113;922661;-74
2021/10/29 02:18:26;;;;;;;14.36;13.08;;;;;;;10.96;68.86;101708.78;461916;113;922661;-75
2021/10/29 02:19:31;;;;;;;14.01;12.76;;;;;;;10.92;68.82;101708.29;461411;114;922536;-74
2021/10/29 02:20:36;;;;;;;13.96;12.89;;;;;;;10.92;68.83;101707.44;462603;113;922665;-74
2021/10/29 02:21:41;;;;;;;14.06;12.88;;;;;;;10.92;68.90;101712.90;463403;113;930500;-73
2021/10/29 02:22:44;;;;;;;14.00;12.75;;;;;;;10.92;68.90;101708.29;464074;114;922561;-72
2021/10/29 02:23:48;;;;;;;14.46;13.00;;;;;;;10.94;68.90;101705.38;463970;113;930448;-74
2021/10/29 02:24:52;;;;;;;16.09;14.09;;;;;;;10.95;68.95;101713.39;464615;113;922481;-75
2021/10/29 02:25:56;;;;;;;15.24;13.86;;;;;;;10.98;68.95;101712.14;462900;112;922572;-74
2021/10/29 02:27:00;;;;;;;14.19;13.09;;;;;;;11.01;68.94;101706.33;463220;113;922644;-74
2021/10/29 02:28:03;;;;;;;14.45;13.27;;;;;;;11.02;68.83;101716.20;463771;113;922389;-75
2021/10/29 02:29:07;;;;;;;13.99;12.76;;;;;;;11.02;68.78;101713.48;463788;113;930488;-73
2021/10/29 02:30:11;;;;;;;13.99;12.83;;;;;;;11.01;68.75;101707.17;463707;114;923155;-74
2021/10/29 02:31:15;;;;;;;13.51;12.45;;;;;;;11.03;68.76;101712.42;462586;113;922837;-74
2021/10/29 02:32:18;;;;;;;14.61;13.48;;;;;;;11.03;68.78;101721.45;464131;113;923031;-74
2021/10/29 02:33:22;;;;;;;13.91;12.66;;;;;;;11.05;68.71;101713.08;462915;113;930557;-74
2021/10/29 02:34:25;;;;;;;13.72;12.78;;;;;;;11.05;68.71;101719.39;462594;114;922887;-74
2021/10/29 02:35:29;;;;;;;14.16;12.97;;;;;;;11.08;68.71;101715.45;462154;114;922951;-73
2021/10/29 02:36:33;;;;;;;14.59;13.32;;;;;;;11.10;68.66;101727.86;462609;113;930344;-73
2021/10/29 02:37:36;;;;;;;14.28;12.90;;;;;;;11.12;68.61;101723.06;462953;113;922892;-74
2021/10/29 02:38:40;;;;;;;14.92;13.80;;;;;;;11.14;68.57;101728.30;461857;113;930384;-73
2021/10/29 02:39:43;;;;;;;13.81;12.79;;;;;;;11.16;68.53;101724.36;461854;113;922681;-72
2021/10/29 02:40:48;;;;;;;13.94;12.65;;;;;;;11.18;68.47;101724.19;461495;113;922879;-73
2021/10/29 02:41:51;;;;;;;15.02;13.72;;;;;;;11.19;68.42;101725.88;461712;113;922951;-74
2021/10/29 02:42:55;;;;;;;14.14;13.10;;;;;;;11.19;68.37;101726.70;462132;113;923685;-76
2021/10/29 02:43:59;;;;;;;15.01;13.91;;;;;;;11.19;68.30;101726.70;461037;114;923206;-72
2021/10/29 02:45:03;;;;;;;14.27;13.09;;;;;;;11.19;68.30;101729.42;461642;113;923142;-73
2021/10/29 02:46:07;;;;;;;14.18;13.15;;;;;;;11.19;68.33;101732.16;463930;112;923021;-73
2021/10/29 02:47:11;;;;;;;15.45;13.95;;;;;;;11.20;68.30;101727.55;464152;114;922973;-75
2021/10/29 02:48:15;;;;;;;14.64;13.45;;;;;;;11.21;68.26;101723.78;464129;114;930381;-75
2021/10/29 02:49:18;;;;;;;15.88;14.31;;;;;;;11.23;68.22;101725.30;462670;113;923061;-74
2021/10/29 02:50:23;;;;;;;14.87;13.70;;;;;;;11.24;68.23;101724.27;462916;114;922612;-75
2021/10/29 02:51:29;;;;;;;14.77;13.67;;;;;;;11.25;68.19;101731.40;463273;114;930390;-73
2021/10/29 02:52:32;;;;;;;15.18;13.95;;;;;;;11.27;68.15;101729.34;463689;114;930423;-74
2021/10/29 02:53:37;;;;;;;15.02;13.85;;;;;;;11.30;68.07;101731.67;462348;113;922785;-74
2021/10/29 02:54:40;;;;;;;15.41;13.98;;;;;;;11.32;68.05;101739.67;463360;114;922596;-73
2021/10/29 02:55:44;;;;;;;14.36;13.26;;;;;;;11.33;67.95;101746.84;463098;113;922517;-73
2021/10/29 02:56:47;;;;;;;14.48;13.36;;;;;;;11.34;67.89;101740.34;463757;114;922509;-72
2021/10/29 02:57:51;;;;;;;15.55;14.24;;;;;;;11.34;67.82;101739.49;462865;114;922561;-74
2021/10/29 02:58:54;;;;;;;15.29;14.10;;;;;;;11.34;67.82;101745.80;463380;113;922911;-74
2021/10/29 02:59:58;;;;;;;14.93;13.66;;;;;;;11.35;67.81;101746.66;463557;113;922512;-74
2021/10/29 03:01:03;;;;;;;15.17;13.93;;;;;;;11.36;67.78;101748.35;462398;114;930455;-75
2021/10/29 03:02:07;;;;;;;14.86;13.68;;;;;;;11.38;67.78;101748.98;462203;112;923008;-74
2021/10/29 03:03:11;;;;;;;14.34;13.27;;;;;;;11.38;67.74;101744.38;463023;113;930385;-75
2021/10/29 03:04:15;;;;;;;15.06;13.75;;;;;;;11.39;67.73;101751.53;462406;113;922567;-74
2021/10/29 03:05:18;;;;;;;14.75;13.52;;;;;;;11.40;67.71;101746.92;463386;113;922609;-73
2021/10/29 03:06:23;;;;;;;15.06;13.77;;;;;;;11.41;67.65;101751.35;462465;114;922537;-75
2021/10/29 03:07:28;;;;;;;14.04;12.87;;;;;;;11.42;67.60;101753.87;461323;113;923212;-74
2021/10/29 03:08:32;;;;;;;15.43;14.19;;;;;;;11.44;67.54;101753.69;462075;113;923544;-74
2021/10/29 03:09:35;;;;;;;15.30;13.79;;;;;;;11.44;67.49;101757.27;461542;113;930305;-75
2021/10/29 03:10:38;;;;;;;14.96;13.66;;;;;;;11.46;67.41;101754.34;462122;114;922977;-74
2021/10/29 03:11:42;;;;;;;14.47;13.27;;;;;;;11.46;67.37;101757.93;462452;113;930477;-73
2021/10/29 03:12:46;;;;;;;15.29;13.82;;;;;;;11.47;67.31;101759.59;463426;113;922698;-73
2021/10/29 03:13:49;;;;;;;15.84;14.33;;;;;;;11.48;67.18;101764.02;463266;113;922521;-74
2021/10/29 03:14:53;;;;;;;15.23;13.78;;;;;;;11.48;67.16;101761.30;462910;113;923059;-72
2021/10/29 03:15:56;;;;;;;14.35;13.25;;;;;;;11.47;67.14;101756.02;463450;113;930440;-74
2021/10/29 03:17:01;;;;;;;15.29;14.01;;;;;;;11.47;67.07;101761.48;463277;113;923607;-74
2021/10/29 03:18:05;;;;;;;14.13;12.98;;;;;;;11.46;67.02;101757.08;463365;114;922487;-75
2021/10/29 03:19:10;;;;;;;15.06;13.78;;;;;;;11.45;67.00;101760.84;462227;113;922866;-73
2021/10/29 03:20:14;;;;;;;13.03;11.93;;;;;;;11.44;67.00;101759.99;462494;113;922517;-71
2021/10/29 03:21:17;;;;;;;14.47;13.27;;;;;;;11.44;66.96;101765.45;462830;113;923122;-73
2021/10/29 03:22:22;;;;;;;14.07;13.01;;;;;;;11.39;67.02;101759.73;462965;113;922457;-75
2021/10/29 03:23:25;;;;;;;14.44;13.26;;;;;;;11.39;67.02;101759.73;462940;114;930362;-75
2021/10/29 03:24:29;;;;;;;14.71;13.46;;;;;;;11.39;67.00;101761.61;462412;113;923243;-74
2021/10/29 03:25:32;;;;;;;15.30;14.02;;;;;;;11.38;66.99;101768.10;461975;113;928120;-75
2021/10/29 03:26:36;;;;;;;15.21;13.66;;;;;;;11.38;67.02;101768.10;462474;114;930388;-76
2021/10/29 03:27:39;;;;;;;16.11;14.29;;;;;;;11.37;67.03;101766.41;462105;113;922622;-72
2021/10/29 03:28:43;;;;;;;15.08;13.88;;;;;;;11.37;67.13;101766.41;457159;113;930451;-73
2021/10/29 03:29:47;;;;;;;15.56;14.19;;;;;;;11.34;67.10;101770.38;451072;113;930310;-74
2021/10/29 03:30:50;;;;;;;15.21;14.02;;;;;;;11.28;67.06;101763.80;451167;113;923010;-75
2021/10/29 03:31:54;;;;;;;16.04;14.78;;;;;;;11.19;67.45;101762.19;451247;116;930302;-74
2021/10/29 03:32:58;;;;;;;16.02;14.62;;;;;;;11.14;67.46;101764.64;452717;116;923467;-76
2021/10/29 03:34:01;;;;;;;14.60;13.40;;;;;;;11.10;67.51;101774.25;453340;114;922502;-74
2021/10/29 03:35:05;;;;;;;16.46;14.86;;;;;;;11.07;67.54;101765.61;453984;113;923034;-73
2021/10/29 03:36:10;;;;;;;16.09;14.70;;;;;;;11.05;67.64;101768.52;453448;116;922602;-74
2021/10/29 03:39:46;;;;;;;16.52;15.24;;;;;;;10.98;67.79;101773.03;452540;116;923154;-73
2021/10/29 03:40:53;;;;;;;15.46;14.17;;;;;;;10.96;67.89;101771.55;451488;116;923327;-74
2021/10/29 03:41:59;;;;;;;16.43;14.87;;;;;;;10.95;67.94;101770.69;451943;114;922817;-76
2021/10/29 03:45:16;;;;;;;16.22;14.95;;;;;;;10.89;68.30;101776.90;429375;120;923086;-73
2021/10/29 03:46:25;;;;;;;17.13;15.48;;;;;;;10.84;68.29;101787.53;433039;118;922611;-75
2021/10/29 03:47:29;;;;;;;16.52;15.12;;;;;;;10.81;68.32;101782.43;437833;118;923046;-75
2021/10/29 03:50:24;;;;;;;17.48;15.45;;;;;;;10.78;68.47;101789.13;443737;118;922596;-74
2021/10/29 03:50:46;;;;;;;17.27;15.79;;;;;;;10.79;68.50;101785.37;440810;118;923539;-74
2021/10/29 03:51:54;;;;;;;15.99;14.71;;;;;;;10.78;68.54;101789.13;436027;118;922625;-72
2021/10/29 03:54:16;;;;;;;14.89;13.72;;;;;;;10.92;68.60;101794.76;469404;110;947196;-74
2021/10/29 03:55:16;;;;;;;15.72;14.56;;;;;;;10.80;68.59;101799.86;461721;112;923046;-74
2021/10/29 03:56:23;;;;;;;15.25;14.03;;;;;;;10.79;68.61;101806.34;460087;114;922730;-72
2021/10/29 03:57:28;;;;;;;16.31;14.89;;;;;;;10.77;68.68;101801.06;458893;114;930331;-75
2021/10/29 03:58:31;;;;;;;15.71;14.32;;;;;;;10.76;68.58;101799.36;454888;116;922522;-73
2021/10/29 03:59:35;;;;;;;15.59;14.41;;;;;;;10.76;68.64;101795.78;446146;116;923129;-72
2021/10/29 04:00:38;;;;;;;15.91;14.31;;;;;;;10.76;68.67;101803.97;454599;114;922948;-74
2021/10/29 04:01:42;;;;;;;14.74;13.49;;;;;;;10.76;68.68;101802.09;455529;116;922514;-73
2021/10/29 04:02:46;;;;;;;13.35;12.35;;;;;;;10.77;68.68;101800.22;453681;114;930291;-74
2021/10/29 04:03:50;;;;;;;14.64;13.56;;;;;;;10.79;68.66;101798.16;454106;114;923659;-74
2021/10/29 04:04:53;;;;;;;14.48;13.39;;;;;;;10.81;68.64;101796.07;453366;114;931089;-74
2021/10/29 04:05:57;;;;;;;14.15;13.06;;;;;;;10.84;68.58;101795.72;446477;118;922450;-75
2021/10/29 04:07:00;;;;;;;14.48;13.21;;;;;;;10.86;68.53;101796.39;454509;114;922621;-74
2021/10/29 04:08:04;;;;;;;14.58;13.09;;;;;;;10.89;68.40;101796.00;455061;114;922959;-73
2021/10/29 04:09:07;;;;;;;14.77;13.52;;;;;;;10.91;68.30;101795.82;454673;114;930173;-72
2021/10/29 04:10:11;;;;;;;14.68;13.40;;;;;;;10.93;68.28;101801.92;455615;116;922532;-75
2021/10/29 04:11:20;;;;;;;15.58;14.31;;;;;;;10.93;68.20;101804.64;443488;116;922762;-74
2021/10/29 04:12:20;;;;;;;14.14;13.06;;;;;;;10.93;68.17;101796.45;444411;114;930506;-75
2021/10/29 04:13:27;;;;;;;14.69;13.58;;;;;;;10.94;68.16;101799.02;454831;114;922639;-72
2021/10/29 04:14:29;;;;;;;13.96;12.76;;;;;;;10.93;68.11;101804.64;454535;114;924130;-74
2021/10/29 04:15:32;;;;;;;15.21;13.94;;;;;;;10.91;68.03;101804.00;454355;116;922593;-72
2021/10/29 04:16:38;;;;;;;15.78;14.44;;;;;;;10.88;68.05;101802.48;454830;114;930238;-75
2021/10/29 04:17:42;;;;;;;14.37;13.12;;;;;;;10.87;68.06;101798.05;453046;114;922705;-74
2021/10/29 04:18:45;;;;;;;13.76;12.66;;;;;;;10.85;68.09;101803.72;454731;116;923218;-74
2021/10/29 04:19:49;;;;;;;13.54;12.51;;;;;;;10.85;68.08;101806.45;455270;116;922646;-76
2021/10/29 04:20:53;;;;;;;14.66;13.53;;;;;;;10.84;68.10;101812.09;453386;114;930369;-73
2021/10/29 04:22:00;;;;;;;13.58;12.50;;;;;;;10.83;68.09;101805.78;454609;114;922641;-74
2021/10/29 04:23:03;;;;;;;14.61;13.14;;;;;;;10.81;68.06;101815.17;446463;118;923187;-73
2021/10/29 04:24:07;;;;;;;14.05;12.94;;;;;;;10.79;68.12;101818.11;455616;114;922311;-73
2021/10/29 04:25:12;;;;;;;14.04;12.75;;;;;;;10.76;68.12;101823.92;454899;114;922666;-75
2021/10/29 04:26:16;;;;;;;14.09;13.01;;;;;;;10.75;68.19;101821.40;455867;114;922082;-72
2021/10/29 04:27:21;;;;;;;14.36;13.12;;;;;;;10.75;68.29;101827.67;454448;114;922900;-74
2021/10/29 04:28:25;;;;;;;13.81;12.58;;;;;;;10.74;68.26;101831.46;455096;114;923216;-73
2021/10/29 04:29:36;;;;;;;13.91;12.78;;;;;;;10.73;68.28;101828.91;454594;114;922706;-75
2021/10/29 04:30:35;;;;;;;14.64;13.48;;;;;;;10.71;68.34;101831.81;454198;115;922638;-74
2021/10/29 04:31:49;;;;;;;13.73;12.57;;;;;;;10.71;68.34;101833.69;454989;115;922580;-73
2021/10/29 04:32:53;;;;;;;15.52;13.52;;;;;;;10.71;68.37;101839.14;454222;114;924303;-72
2021/10/29 04:33:56;;;;;;;18.35;13.78;;;;;;;10.72;68.35;101838.13;453807;114;922697;-74
2021/10/29 04:35:00;;;;;;;14.56;13.34;;;;;;;10.73;68.34;101850.73;453546;114;922623;-74
2021/10/29 04:36:03;;;;;;;15.04;13.82;;;;;;;10.73;68.32;101843.40;454874;116;930779;-72
2021/10/29 04:37:07;;;;;;;14.51;13.14;;;;;;;10.74;68.43;101845.09;454470;115;922669;-74
2021/10/29 04:38:12;;;;;;;13.68;12.51;;;;;;;10.76;68.43;101853.92;453514;114;922659;-73
2021/10/29 04:39:16;;;;;;;14.87;13.49;;;;;;;10.78;68.43;101853.75;453706;114;930663;-74
2021/10/29 04:40:21;;;;;;;13.98;12.82;;;;;;;10.81;68.35;101848.76;454570;115;922316;-74
2021/10/29 04:41:25;;;;;;;14.60;13.33;;;;;;;10.82;68.26;101855.91;454829;116;922963;-74
2021/10/29 04:42:28;;;;;;;14.42;12.93;;;;;;;10.84;68.22;101851.13;437988;118;922682;-74
2021/10/29 04:43:32;;;;;;;15.92;13.99;;;;;;;10.86;68.17;101857.23;454388;114;922602;-73
2021/10/29 04:44:35;;;;;;;16.21;15.01;;;;;;;10.87;68.13;101849.89;455583;114;925139;-73
2021/10/29 04:45:39;;;;;;;15.80;14.60;;;;;;;10.86;68.11;101843.59;455478;115;923021;-73
2021/10/29 04:46:43;;;;;;;16.55;15.21;;;;;;;10.87;68.11;101848.02;454498;114;930855;-73
2021/10/29 04:47:46;;;;;;;16.61;15.18;;;;;;;10.89;68.09;101842.39;454570;114;930545;-75
2021/10/29 04:48:50;;;;;;;16.64;15.28;;;;;;;10.90;68.03;101849.55;455094;115;923058;-75
2021/10/29 04:49:53;;;;;;;16.82;15.34;;;;;;;10.91;67.94;101847.67;454785;114;930523;-75
2021/10/29 04:50:58;;;;;;;16.67;15.36;;;;;;;10.89;67.91;101853.30;454268;114;930592;-75
2021/10/29 04:52:02;;;;;;;16.47;15.21;;;;;;;10.88;67.94;101857.05;453849;114;930631;-74
2021/10/29 04:53:06;;;;;;;16.35;15.02;;;;;;;10.87;67.93;101855.36;454529;114;922953;-74
2021/10/29 04:54:10;;;;;;;17.30;15.91;;;;;;;10.86;67.94;101857.23;455145;113;923068;-75
2021/10/29 04:55:13;;;;;;;18.71;16.58;;;;;;;10.87;67.90;101863.54;454746;114;922718;-72